»·PEaware :: N806AM KCMA-KSNA

N806AM :: KCMA-KSNA

FLIGHT INFORMATION

Flight Status: Arrived
Operator: Privately registered:
United States
More flights under this callsign
Pilot: Steven Duran D. (32271)
Aircraft: PIPER PA-44 SEMINOLE
(PA44)
More flights by this aircraft type
Origin: KCMA Camarillo
United States
Destination: KSNA John Wayne-Orange Co
United States
More flights between these airports :: More routes between these airports
Route:
File this flight plan on PilotEdge
Remarks:
Altitude:
(Current/Filed)
5,500ft
Speed:
(Current/Filed)
150kts
Departed: 25-Nov-20 11:09 AM
Arrived: 25-Nov-20 11:57 AM
Distance/Time
Traveled:
69nm/0:48
Distance/Time
To Go:
Arrived

Flight Plot

Page will automatically refresh every two minutes.


Map Options




Map Legend


Flown Route
Filed Route
Departure Airport
Arrival Airport
Navaid (VOR, NDB)
Fix

Horizontal Profiles

Position Reports

Time Latitude Longitude Heading Altitude Ground
Speed
25-Nov-20 10:40 34.210163 -119.075894 314 78ft 0kts
25-Nov-20 10:41 34.210163 -119.075894 314 78ft 0kts
25-Nov-20 10:42 34.210163 -119.075894 314 78ft 0kts
25-Nov-20 10:43 34.210163 -119.075894 314 78ft 0kts
25-Nov-20 10:44 34.210163 -119.075894 314 78ft 0kts
25-Nov-20 10:45 34.210164 -119.075895 314 78ft 0kts
25-Nov-20 10:46 34.210165 -119.075897 314 78ft 0kts
25-Nov-20 10:47 34.210167 -119.075899 314 78ft 0kts
25-Nov-20 10:48 34.210168 -119.075900 314 78ft 0kts
25-Nov-20 10:49 34.210169 -119.075901 314 78ft 0kts
25-Nov-20 10:50 34.210170 -119.075902 314 78ft 0kts
25-Nov-20 10:51 34.210171 -119.075903 314 78ft 0kts
25-Nov-20 10:52 34.210171 -119.075904 314 78ft 0kts
25-Nov-20 10:53 34.210172 -119.075905 314 78ft 0kts
25-Nov-20 10:55 34.210173 -119.075907 314 78ft 0kts
25-Nov-20 10:56 34.210174 -119.075908 314 78ft 0kts
25-Nov-20 10:57 34.210175 -119.075909 314 78ft 0kts
25-Nov-20 10:58 34.210176 -119.075910 314 78ft 0kts
25-Nov-20 10:59 34.210177 -119.075911 314 78ft 0kts
25-Nov-20 11:00 34.210178 -119.075912 314 78ft 0kts
25-Nov-20 11:01 34.210178 -119.075913 314 78ft 0kts
25-Nov-20 11:02 34.210179 -119.075914 314 78ft 0kts
25-Nov-20 11:03 34.210180 -119.075915 314 78ft 0kts
25-Nov-20 11:04 34.210889 -119.078144 273 78ft 21kts
25-Nov-20 11:05 34.210938 -119.083309 271 78ft 6kts
25-Nov-20 11:06 34.212732 -119.084601 359 78ft 3kts
25-Nov-20 11:07 34.212769 -119.084602 0 78ft 0kts
25-Nov-20 11:08 34.212769 -119.084602 0 78ft 0kts
25-Nov-20 11:09 34.213757 -119.093031 271 130ft 90kts
25-Nov-20 11:09 34.216962 -119.118932 307 1182ft 105kts
25-Nov-20 11:11 34.238257 -119.104056 90 2310ft 105kts
25-Nov-20 11:12 34.236883 -119.068240 92 3285ft 107kts
25-Nov-20 11:13 34.237899 -119.031356 71 4263ft 113kts
25-Nov-20 11:14 34.251521 -118.995896 55 5545ft 134kts
25-Nov-20 11:14 34.269297 -118.958393 55 5418ft 166kts
25-Nov-20 11:16 34.296383 -118.903126 55 5603ft 159kts
25-Nov-20 11:16 34.317540 -118.865454 51 5466ft 162kts
25-Nov-20 11:17 34.344559 -118.821912 50 5439ft 159kts
25-Nov-20 11:18 34.369199 -118.778175 52 5432ft 156kts
25-Nov-20 11:19 34.389368 -118.732650 92 5441ft 160kts
25-Nov-20 11:20 34.375951 -118.680862 110 5467ft 162kts
25-Nov-20 11:21 34.357477 -118.630904 117 5469ft 162kts
25-Nov-20 11:22 34.354669 -118.579196 58 5500ft 157kts
25-Nov-20 11:23 34.384987 -118.573907 301 5532ft 138kts
25-Nov-20 11:24 34.381378 -118.616917 227 5589ft 141kts
25-Nov-20 11:25 34.344301 -118.629698 162 5627ft 154kts
25-Nov-20 11:26 34.304194 -118.607115 157 5499ft 160kts
25-Nov-20 11:27 34.264516 -118.583892 156 5488ft 160kts
25-Nov-20 11:28 34.223379 -118.562513 167 5492ft 160kts
25-Nov-20 11:29 34.179977 -118.549342 165 5501ft 161kts
25-Nov-20 11:30 34.138257 -118.530128 160 5503ft 162kts
25-Nov-20 11:31 34.096003 -118.511205 162 5504ft 162kts
25-Nov-20 11:32 34.054016 -118.490958 160 5504ft 162kts
25-Nov-20 11:33 34.012269 -118.470491 161 5504ft 162kts
25-Nov-20 11:34 33.970287 -118.450077 161 5504ft 162kts
25-Nov-20 11:35 33.928377 -118.429781 162 5504ft 162kts
25-Nov-20 11:36 33.891574 -118.398501 130 5508ft 165kts
25-Nov-20 11:37 33.864164 -118.354893 143 5525ft 163kts
25-Nov-20 11:38 33.846356 -118.337875 141 5527ft 165kts
25-Nov-20 11:39 33.811925 -118.300921 139 5529ft 165kts
25-Nov-20 11:40 33.777719 -118.263879 139 5528ft 165kts
25-Nov-20 11:41 33.743339 -118.226815 139 5529ft 165kts
25-Nov-20 11:42 33.709153 -118.189963 139 5529ft 165kts
25-Nov-20 11:43 33.676879 -118.151042 105 5518ft 166kts
25-Nov-20 11:44 33.683787 -118.098555 69 5558ft 161kts
25-Nov-20 11:45 33.696321 -118.047069 69 5445ft 157kts
25-Nov-20 11:46 33.709526 -117.996030 71 4692ft 162kts
25-Nov-20 11:47 33.722124 -117.944401 68 3760ft 162kts
25-Nov-20 11:48 33.729648 -117.893155 115 2781ft 146kts
25-Nov-20 11:49 33.700083 -117.876047 109 1685ft 142kts
25-Nov-20 11:50 33.671717 -117.868348 203 1425ft 133kts
25-Nov-20 11:51 33.664807 -117.900490 331 1238ft 135kts
25-Nov-20 11:52 33.695339 -117.888494 33 1197ft 116kts
25-Nov-20 11:53 33.720088 -117.864813 81 1091ft 113kts
25-Nov-20 11:54 33.698023 -117.854894 206 595ft 103kts
25-Nov-20 11:55 33.676516 -117.868269 208 59ft 60kts
25-Nov-20 11:56 33.674171 -117.870804 300 59ft 0kts
25-Nov-20 11:57 33.674172 -117.870804 300 59ft 0kts
25-Nov-20 11:58 33.674172 -117.870805 300 59ft 0kts
25-Nov-20 11:59 33.674172 -117.870805 300 59ft 0kts
25-Nov-20 12:00 33.674689 -117.871012 28 59ft 6kts
25-Nov-20 12:01 33.675320 -117.871261 212 59ft 0kts
25-Nov-20 12:02 33.675320 -117.871262 212 59ft 0kts
25-Nov-20 12:03 33.675320 -117.871262 212 59ft 0kts
25-Nov-20 12:04 33.675320 -117.871262 212 59ft 0kts

Navigation Log

Ident Type
Flight plan parsing failed, navigation log unavailable